River Heights, Utah
Current Conditions -  °F | °C
As of 5:51 AM on Saturday 22 Nov 2014 (Local Time) from KLGU Reporting Station
Overcast Overcast  
Wind Chill: 31°   Ceiling: 6500
Heat Index: 35°   Visibility: 9mi
Dew Point: 28°   Wind: 5mph
Humidity: 76%   Direction: 330°NNW
Pressure: 29.85"   Gusts: NA
Location:  41.6898°N, 111.643°W
Report Text: KLGU 221251Z AUTO 33004KT 9SM OVC065 02/M02 A2985 RMK AO2 SLP114 T00171022
Loading
Personal Weather Stations






























Interactive Weather Map New forecast layout! Learn more

10-Day Weather Forecast

Advertisements
Track Severe Weather on mobile